Hamburg, Arkansas
Current Conditions -  °F | °C
As of 12:53 PM on Wednesday 26 Nov 2014 (Local Time) from KLLQ Reporting Station
Clear Clear  
Wind Chill: 63°   Ceiling: Unl
Heat Index: 63°   Visibility: 10mi
Dew Point: 33°   Wind: 12mph
Humidity: 33%   Direction: 260°W
Pressure: 29.99"   Gusts: 21mph
Location:  33.23°N, 91.8°W
Report Text: KLLQ 261853Z AUTO 26010G18KT 10SM CLR 17/01 A2999 RMK AO2 PK WND 26030/1808 RAB1759E35 SLP156 P0000 T01720006
Loading
Personal Weather Stations






























Interactive Weather Map New forecast layout! Learn more

10-Day Weather Forecast

Advertisements
Track Severe Weather on mobile